This is the latest recevied weather packets stored in our database for station/object ALTO-WX. If no packets are shown the sender has not sent any weather packets the latest 10 day(s).
| Time | Temp. | Humidity | Pressure | Rain* | Wind** | Luminosity | Snow |
|---|---|---|---|---|---|---|---|
| 1778135452 | 4.44° C | 65% | 983.4 hPa | 0 mm | - | - | - |
| 1778134537 | 4.44° C | 65% | 983.4 hPa | 0 mm | - | - | - |
| 1778133669 | 5° C | 65% | 983.4 hPa | 0 mm | - | - | - |
| 1778132736 | 5° C | 64% | 983.9 hPa | 0 mm | - | - | - |
| 1778131855 | 5° C | 64% | 983.9 hPa | 0 mm | - | - | - |
| 1778130936 | 5.56° C | 64% | 983.9 hPa | 0 mm | - | - | - |
| 1778130068 | 5.56° C | 64% | 982.9 hPa | 0 mm | - | - | - |
| 1778129135 | 5.56° C | 59% | 983.8 hPa | 0 mm | - | - | - |
| 1778128251 | 6.11° C | 59% | 983.8 hPa | 0 mm | - | - | - |
| 1778127335 | 6.67° C | 59% | 983.8 hPa | 0 mm | - | - | - |
| 1778126469 | 6.67° C | 59% | 983.8 hPa | 0 mm | - | - | - |
| 1778125536 | 6.67° C | 47% | 984.6 hPa | 0 mm | - | - | - |
| 1778124650 | 6.11° C | 54% | 982.9 hPa | 0 mm | - | - | - |
| 1778123735 | 5.56° C | 54% | 982.9 hPa | 0 mm | - | - | - |
| 1778122868 | 6.11° C | 54% | 982.9 hPa | 0 mm | - | - | - |
| 1778121934 | 6.11° C | 52% | 983.9 hPa | 0 mm | - | - | - |
| 1778121048 | 6.67° C | 52% | 983.7 hPa | 0 mm | - | - | - |
| 1778120134 | 6.11° C | 52% | 983.7 hPa | 0 mm | - | - | - |
| 1778119258 | 6.67° C | 52% | 983.7 hPa | 0 mm | - | - | - |
| 1778118334 | 6.67° C | 47% | 983.3 hPa | 0 mm | - | - | - |
| 1778117450 | 7.22° C | 47% | 983.3 hPa | 0 mm | - | - | - |
| 1778116534 | 7.22° C | 47% | 983.3 hPa | 0 mm | - | - | - |
| 1778115660 | 7.78° C | 47% | 983.3 hPa | 0 mm | - | - | - |
| 1778114734 | 7.78° C | 38% | 984.1 hPa | 0 mm | - | - | - |
| 1778113851 | 8.33° C | 40% | 984 hPa | 0 mm | - | - | - |
* Rain latest hour (hover to see other rain measurements)
** Current wind speed in m/s (hover to see current wind gust speed)